Time;durP1;ratioP1;P1;durP2;ratioP2;P2;SDS_P1;SDS_P2;PMS_P1;PMS_P2;Temp;Humidity;BMP_temperature;BMP_pressure;BME280_temperature;BME280_humidity;BME280_pressure;Samples;Min_cycle;Max_cycle;Signal;HPM_P1;HPM_P2
2022/02/14 00:00:13;;;;;;;38.75;20.08;;;;;;;1.16;82.40;100798.84;6279430;28;20048;-68
2022/02/14 00:03:14;;;;;;;39.87;21.33;;;;;;;1.19;83.96;100793.69;6297331;28;20044;-68
2022/02/14 00:06:15;;;;;;;40.80;20.80;;;;;;;1.23;84.75;100793.63;6279178;28;20040;-68
2022/02/14 00:09:15;;;;;;;30.60;17.05;;;;;;;1.25;85.19;100790.16;6279235;28;20060;-68
2022/02/14 00:12:16;;;;;;;35.97;18.92;;;;;;;1.27;83.73;100792.72;6279362;28;20051;-68
2022/02/14 00:15:18;;;;;;;31.98;17.95;;;;;;;1.27;85.31;100787.59;6297031;28;20190;-68
2022/02/14 00:18:19;;;;;;;35.47;18.60;;;;;;;1.27;83.26;100793.56;6279289;28;20396;-68
2022/02/14 00:21:20;;;;;;;34.95;18.27;;;;;;;1.32;85.75;100785.81;6278715;28;20139;-68
2022/02/14 00:24:21;;;;;;;30.23;17.17;;;;;;;1.32;84.47;100781.53;6278843;28;20050;-68
2022/02/14 00:27:22;;;;;;;30.80;16.67;;;;;;;1.34;83.98;100795.22;6278997;28;20083;-68
2022/02/14 00:30:23;;;;;;;31.50;17.08;;;;;;;1.36;84.34;100782.31;6245800;28;20048;-68
2022/02/14 00:33:24;;;;;;;30.63;18.10;;;;;;;1.35;85.38;100770.34;6296565;28;20401;-69
2022/02/14 00:36:25;;;;;;;31.42;17.77;;;;;;;1.05;85.63;100776.69;6245779;28;20056;-68
2022/02/14 00:39:25;;;;;;;36.22;19.92;;;;;;;1.26;85.17;100776.47;6278506;28;20043;-68
2022/02/14 00:42:26;;;;;;;36.53;19.02;;;;;;;1.32;83.68;100771.25;6278471;28;20400;-68
2022/02/14 00:45:27;;;;;;;35.65;18.42;;;;;;;1.38;84.72;100771.19;6261825;28;20054;-68
2022/02/14 00:48:28;;;;;;;28.75;16.98;;;;;;;1.39;83.96;100757.44;6278408;28;20063;-68
2022/02/14 00:51:29;;;;;;;34.05;17.67;;;;;;;1.45;85.46;100763.41;6278392;28;20032;-68
2022/02/14 00:54:30;;;;;;;32.08;17.92;;;;;;;1.39;85.08;100764.31;6278454;28;20048;-68
2022/02/14 00:57:30;;;;;;;32.38;16.15;;;;;;;1.39;83.56;100756.59;6265529;28;20472;-68
2022/02/14 01:00:31;;;;;;;32.75;17.30;;;;;;;1.35;84.28;100755.78;6271361;28;20045;-68
2022/02/14 01:03:33;;;;;;;32.60;18.40;;;;;;;1.37;83.74;100750.63;6271014;28;20049;-68
2022/02/14 01:06:34;;;;;;;31.20;17.98;;;;;;;1.40;83.44;100748.00;6271220;28;20048;-68
2022/02/14 01:09:35;;;;;;;33.80;17.52;;;;;;;1.43;83.99;100742.00;6237042;28;20069;-68
2022/02/14 01:12:37;;;;;;;34.25;17.92;;;;;;;1.45;83.55;100740.25;6253169;28;20075;-68
2022/02/14 01:15:38;;;;;;;37.50;17.95;;;;;;;1.45;83.04;100737.69;6236728;28;20094;-68
2022/02/14 01:18:39;;;;;;;36.10;18.48;;;;;;;1.52;83.06;100745.28;6271063;28;20041;-67
2022/02/14 01:21:42;;;;;;;34.40;17.88;;;;;;;1.52;82.85;100736.72;6270844;28;20052;-72
2022/02/14 01:24:43;;;;;;;29.88;16.65;;;;;;;1.50;83.70;100739.28;6253594;28;20092;-72
2022/02/14 01:27:44;;;;;;;31.92;18.30;;;;;;;1.47;83.99;100726.50;6253328;28;20445;-72
2022/02/14 01:30:44;;;;;;;33.47;18.08;;;;;;;1.50;83.60;100725.59;6253161;28;20061;-73
2022/02/14 01:33:45;;;;;;;28.38;15.93;;;;;;;1.50;82.96;100731.56;6252906;28;20119;-72
2022/02/14 01:36:46;;;;;;;33.85;16.38;;;;;;;1.42;83.94;100725.69;6270755;28;20071;-72
2022/02/14 01:39:47;;;;;;;40.35;20.35;;;;;;;1.35;83.15;100718.94;6236824;28;20374;-71
2022/02/14 01:42:48;;;;;;;33.63;19.15;;;;;;;1.37;83.13;100712.88;6270688;28;20065;-72
2022/02/14 01:45:49;;;;;;;37.85;19.23;;;;;;;1.41;82.67;100714.56;6269601;28;20044;-72
2022/02/14 01:48:50;;;;;;;34.05;17.45;;;;;;;1.47;82.57;100711.06;6252959;28;20060;-72
2022/02/14 01:51:50;;;;;;;30.33;16.20;;;;;;;1.40;82.38;100706.84;6257919;28;20079;-72
2022/02/14 01:54:51;;;;;;;28.67;16.02;;;;;;;1.43;82.85;100714.53;6275584;28;20127;-71
2022/02/14 01:57:52;;;;;;;34.75;17.30;;;;;;;1.43;83.41;100701.69;6290852;28;20489;-72
2022/02/14 02:00:53;;;;;;;33.28;17.20;;;;;;;1.45;82.70;100699.09;6282527;28;20508;-72
2022/02/14 02:03:54;;;;;;;35.40;19.35;;;;;;;1.41;83.38;100695.72;6300004;28;20044;-72
2022/02/14 02:06:55;;;;;;;36.15;18.40;;;;;;;1.46;83.94;100693.91;6300187;28;20041;-72
2022/02/14 02:09:56;;;;;;;32.50;17.23;;;;;;;1.47;83.47;100689.66;6300041;28;20146;-72
2022/02/14 02:12:57;;;;;;;34.25;17.95;;;;;;;1.43;83.12;100695.69;6300012;28;20037;-72
2022/02/14 02:15:58;;;;;;;33.50;16.88;;;;;;;1.48;83.51;100691.31;6299837;28;20048;-72
2022/02/14 02:18:59;;;;;;;33.45;18.33;;;;;;;1.51;83.95;100678.44;6299912;28;20500;-72
2022/02/14 02:22:00;;;;;;;31.80;18.15;;;;;;;1.50;84.22;100676.72;6265429;28;20056;-72
2022/02/14 02:25:01;;;;;;;36.75;18.38;;;;;;;1.55;84.19;100677.53;6265418;28;20040;-72
2022/02/14 02:28:02;;;;;;;34.65;18.88;;;;;;;1.54;83.48;100663.78;6281804;28;20516;-72
2022/02/14 02:31:04;;;;;;;35.05;18.50;;;;;;;1.58;83.50;100668.03;6265277;28;20520;-72
2022/02/14 02:34:06;;;;;;;33.65;17.73;;;;;;;1.60;83.72;100662.88;6299541;28;20045;-72
2022/02/14 02:37:08;;;;;;;29.40;16.25;;;;;;;1.46;82.50;100657.91;6281827;28;20041;-72
2022/02/14 02:40:10;;;;;;;36.80;17.23;;;;;;;1.59;83.03;100662.03;6299631;28;20143;-72
2022/02/14 02:43:11;;;;;;;35.58;17.83;;;;;;;1.61;83.83;100668.00;6299207;28;20048;-72
2022/02/14 02:46:11;;;;;;;36.88;19.08;;;;;;;1.58;83.24;100655.16;6281297;28;20044;-71
2022/02/14 02:49:21;;;;;;;34.50;18.75;;;;;;;1.57;83.64;100645.75;6299160;28;20147;-72
2022/02/14 02:52:22;;;;;;;36.80;18.80;;;;;;;1.61;84.05;100657.72;6299138;28;20094;-72
2022/02/14 02:55:23;;;;;;;36.40;18.60;;;;;;;1.53;82.81;100648.41;6281154;28;20044;-72
2022/02/14 02:58:24;;;;;;;31.20;17.73;;;;;;;1.52;84.10;100644.97;6280787;28;20057;-68
2022/02/14 03:01:25;;;;;;;31.50;17.33;;;;;;;1.55;84.80;100634.66;6280701;28;20041;-68
2022/02/14 03:04:26;;;;;;;32.65;18.17;;;;;;;1.54;85.42;100637.22;6299087;28;20124;-68
2022/02/14 03:07:27;;;;;;;37.10;18.13;;;;;;;1.63;84.76;100634.53;6280894;28;20115;-68
2022/02/14 03:10:28;;;;;;;32.17;17.10;;;;;;;1.55;84.61;100629.50;6280911;28;20044;-68
2022/02/14 03:13:28;;;;;;;33.03;18.00;;;;;;;1.57;85.08;100640.63;6280717;28;20036;-69
2022/02/14 03:16:29;;;;;;;33.53;16.30;;;;;;;1.65;85.38;100637.94;6298463;28;20383;-72
2022/02/14 03:19:30;;;;;;;30.40;17.30;;;;;;;1.71;85.45;100647.25;6263991;28;20127;-68
2022/02/14 03:22:31;;;;;;;36.42;19.08;;;;;;;1.70;85.04;100641.28;6298313;28;20388;-68
2022/02/14 03:25:32;;;;;;;43.97;21.45;;;;;;;1.78;84.53;100659.19;6298431;28;20040;-72
2022/02/14 03:28:33;;;;;;;37.83;19.08;;;;;;;1.76;83.98;100632.63;6280525;28;20037;-72
2022/02/14 03:31:34;;;;;;;39.42;19.83;;;;;;;1.62;85.44;100645.69;6280467;28;20041;-72
2022/02/14 03:34:34;;;;;;;35.58;17.38;;;;;;;1.72;85.00;100641.25;6298099;28;20255;-68
2022/02/14 03:37:35;;;;;;;37.53;20.10;;;;;;;1.66;86.02;100629.34;6280601;28;20105;-72
2022/02/14 03:40:37;;;;;;;34.28;18.45;;;;;;;1.66;85.76;100643.94;6298020;28;20472;-72
2022/02/14 03:43:38;;;;;;;36.97;18.73;;;;;;;1.77;86.08;100649.75;6279987;28;20101;-68
2022/02/14 03:46:40;;;;;;;39.00;18.85;;;;;;;1.78;85.95;100651.47;6296645;28;20041;-72
2022/02/14 03:49:40;;;;;;;36.73;19.77;;;;;;;1.73;87.20;100648.09;6279855;28;20401;-72
2022/02/14 03:52:41;;;;;;;43.42;20.02;;;;;;;1.74;87.45;100637.78;6279766;28;20041;-72
2022/02/14 03:55:42;;;;;;;36.83;19.38;;;;;;;1.77;87.63;100631.72;6279843;28;20094;-72
2022/02/14 03:58:43;;;;;;;38.25;20.90;;;;;;;1.79;87.63;100637.69;6259295;28;20128;-72
2022/02/14 04:01:46;;;;;;;40.30;20.00;;;;;;;1.81;88.44;100638.53;6271575;28;20044;-68
2022/02/14 04:04:46;;;;;;;38.97;20.65;;;;;;;1.77;89.10;100634.31;6272435;28;20447;-68
2022/02/14 04:07:47;;;;;;;35.65;20.15;;;;;;;1.79;89.34;100636.00;6254839;28;20037;-68
2022/02/14 04:10:48;;;;;;;37.13;20.00;;;;;;;1.85;89.73;100639.34;6272386;28;20048;-72
2022/02/14 04:13:49;;;;;;;39.38;18.63;;;;;;;1.88;90.04;100642.72;6253908;28;20033;-72
2022/02/14 04:16:50;;;;;;;37.67;20.83;;;;;;;1.87;90.25;100638.44;6272327;28;20509;-72
2022/02/14 04:19:50;;;;;;;36.72;19.65;;;;;;;1.90;90.18;100630.69;6272572;28;20071;-72
2022/02/14 04:22:51;;;;;;;38.28;21.25;;;;;;;1.90;89.61;100635.84;6254471;28;20087;-72
2022/02/14 04:25:55;;;;;;;42.47;21.45;;;;;;;1.89;90.04;100626.38;6254183;28;20071;-72
2022/02/14 04:28:55;;;;;;;39.20;20.10;;;;;;;1.95;90.18;100625.44;6221910;28;20421;-72
2022/02/14 04:31:56;;;;;;;41.20;22.40;;;;;;;1.99;90.02;100630.50;6254236;28;20048;-73
2022/02/14 04:34:57;;;;;;;40.38;20.88;;;;;;;1.93;89.95;100629.78;6271763;28;20037;-72
2022/02/14 04:38:01;;;;;;;40.63;21.23;;;;;;;1.93;90.54;100619.47;6254128;28;20102;-72
2022/02/14 04:41:02;;;;;;;39.88;21.65;;;;;;;1.97;90.47;100621.13;6271752;28;20039;-72
2022/02/14 04:44:03;;;;;;;42.63;21.52;;;;;;;1.94;90.96;100629.75;6270278;28;20064;-72
2022/02/14 04:47:04;;;;;;;39.28;21.65;;;;;;;1.89;91.45;100626.38;6253950;28;20037;-72
2022/02/14 04:50:05;;;;;;;43.92;21.67;;;;;;;1.94;90.90;100629.75;6271542;28;20042;-72
2022/02/14 04:53:07;;;;;;;40.65;21.65;;;;;;;2.03;91.00;100626.19;6253995;28;20048;-72
2022/02/14 04:56:08;;;;;;;39.22;22.35;;;;;;;2.00;90.99;100629.66;6253721;28;20543;-72
2022/02/14 04:59:09;;;;;;;38.33;22.60;;;;;;;1.99;90.75;100633.09;6260584;28;20096;-72
2022/02/14 05:02:10;;;;;;;41.55;22.60;;;;;;;2.05;90.57;100636.47;6296277;28;20087;-72
2022/02/14 05:05:11;;;;;;;49.00;25.13;;;;;;;2.03;90.69;100631.31;6278069;28;20037;-72
2022/02/14 05:08:13;;;;;;;46.25;24.40;;;;;;;2.06;91.10;100633.00;6278090;28;20056;-71
2022/02/14 05:11:14;;;;;;;44.58;22.98;;;;;;;2.04;89.76;100633.03;6295950;28;20152;-72
2022/02/14 05:14:15;;;;;;;39.00;22.88;;;;;;;2.01;91.16;100620.19;6295952;28;20052;-72
2022/02/14 05:17:16;;;;;;;44.30;22.38;;;;;;;2.03;91.42;100633.91;6278184;28;20063;-73
2022/02/14 05:20:16;;;;;;;49.97;24.70;;;;;;;2.00;90.67;100634.81;6295976;28;20075;-72
2022/02/14 05:23:18;;;;;;;48.85;24.98;;;;;;;2.01;90.90;100633.91;6277842;28;20059;-72
2022/02/14 05:26:19;;;;;;;43.90;23.08;;;;;;;1.94;89.83;100628.91;6277625;28;20124;-72
2022/02/14 05:29:19;;;;;;;45.53;23.65;;;;;;;1.96;89.38;100633.16;6278074;28;20041;-72
2022/02/14 05:32:20;;;;;;;51.45;26.23;;;;;;;1.98;89.82;100636.56;6295724;28;20405;-72
2022/02/14 05:35:21;;;;;;;50.70;25.23;;;;;;;1.80;90.80;100650.56;6295684;28;20492;-72
2022/02/14 05:38:22;;;;;;;44.63;24.98;;;;;;;1.83;90.64;100644.50;6295603;28;20044;-72
2022/02/14 05:41:23;;;;;;;53.30;26.30;;;;;;;1.86;90.36;100647.03;6278063;28;20041;-72
2022/02/14 05:44:24;;;;;;;48.97;26.27;;;;;;;1.77;89.53;100645.47;6277385;28;20048;-72
2022/02/14 05:47:25;;;;;;;62.22;31.58;;;;;;;1.86;90.29;100644.47;6277748;28;20056;-73
2022/02/14 05:50:26;;;;;;;76.05;36.97;;;;;;;1.88;90.68;100642.72;6277742;28;20420;-72
2022/02/14 05:53:26;;;;;;;72.45;33.72;;;;;;;1.82;90.39;100647.97;6295464;28;20098;-72
2022/02/14 05:56:27;;;;;;;284.55;99.70;;;;;;;1.84;91.31;100638.50;6244288;28;20051;-72
2022/02/14 05:59:29;;;;;;;161.57;56.45;;;;;;;1.88;92.09;100644.47;6244471;28;20056;-72
2022/02/14 06:02:30;;;;;;;62.08;28.90;;;;;;;1.89;91.14;100641.84;6295450;28;20119;-72
2022/02/14 06:05:30;;;;;;;61.80;30.15;;;;;;;1.94;91.51;100641.78;6277438;28;20050;-73
2022/02/14 06:08:31;;;;;;;81.60;37.85;;;;;;;1.91;91.82;100634.09;6277525;28;20068;-72
2022/02/14 06:11:33;;;;;;;59.63;28.92;;;;;;;1.89;91.09;100634.13;6295187;28;20041;-72
2022/02/14 06:14:34;;;;;;;48.40;26.48;;;;;;;1.88;91.00;100640.16;6295220;28;20059;-68
2022/02/14 06:17:34;;;;;;;47.80;25.73;;;;;;;1.95;91.66;100635.75;6280506;28;20480;-68
2022/02/14 06:20:36;;;;;;;50.40;26.35;;;;;;;1.95;91.36;100634.00;6302198;28;20051;-67
2022/02/14 06:23:37;;;;;;;80.72;38.05;;;;;;;2.02;92.17;100637.38;6320274;28;20082;-72
2022/02/14 06:26:38;;;;;;;159.55;62.33;;;;;;;2.11;91.35;100637.19;6268692;28;20052;-68
2022/02/14 06:29:39;;;;;;;199.43;80.05;;;;;;;2.17;90.72;100643.97;6302220;28;20032;-68
2022/02/14 06:32:39;;;;;;;88.80;42.20;;;;;;;2.07;90.50;100638.13;6302163;28;20119;-68
2022/02/14 06:35:41;;;;;;;123.15;53.78;;;;;;;2.19;91.13;100645.63;6286640;28;20445;-68
2022/02/14 06:38:41;;;;;;;117.55;51.30;;;;;;;2.19;90.22;100645.63;6324386;28;20151;-68
2022/02/14 06:41:45;;;;;;;133.68;58.63;;;;;;;2.17;90.69;100649.97;6306500;28;20472;-68
2022/02/14 06:44:46;;;;;;;121.15;55.00;;;;;;;2.31;90.32;100644.59;6324349;28;20040;-68
2022/02/14 06:47:47;;;;;;;100.95;43.63;;;;;;;2.38;89.48;100635.84;6306195;28;20060;-72
2022/02/14 06:50:48;;;;;;;61.63;30.73;;;;;;;2.41;89.23;100647.84;6289489;28;20523;-72
2022/02/14 06:53:49;;;;;;;69.72;32.80;;;;;;;2.48;89.02;100639.13;6324086;28;20044;-72
2022/02/14 06:56:50;;;;;;;77.28;40.45;;;;;;;2.53;89.56;100641.63;6323947;28;20105;-72
2022/02/14 06:59:51;;;;;;;97.13;48.75;;;;;;;2.57;89.04;100644.13;6305818;28;20488;-72
2022/02/14 07:02:52;;;;;;;65.97;33.75;;;;;;;2.63;88.69;100637.97;6323986;28;20040;-69
2022/02/14 07:05:53;;;;;;;59.78;31.33;;;;;;;2.61;89.04;100632.88;6289079;28;20094;-72
2022/02/14 07:08:53;;;;;;;53.65;30.08;;;;;;;2.70;88.32;100636.13;6305920;28;20408;-68
2022/02/14 07:11:54;;;;;;;54.13;28.90;;;;;;;2.79;87.95;100644.53;6322078;28;20044;-68
2022/02/14 07:14:55;;;;;;;50.65;26.48;;;;;;;2.83;87.23;100646.19;6288222;28;20556;-72
2022/02/14 07:17:56;;;;;;;51.90;26.75;;;;;;;2.83;87.63;100635.03;6281370;28;20123;-72
2022/02/14 07:20:57;;;;;;;66.30;32.85;;;;;;;2.81;87.12;100642.78;6299289;28;20066;-72
2022/02/14 07:23:58;;;;;;;85.03;43.05;;;;;;;2.96;88.03;100644.19;6298423;28;20097;-68
2022/02/14 07:26:59;;;;;;;60.03;31.20;;;;;;;2.99;87.80;100631.25;6298088;28;20041;-68
2022/02/14 07:30:00;;;;;;;71.75;36.58;;;;;;;3.07;87.11;100635.41;6298185;28;20037;-68
2022/02/14 07:33:01;;;;;;;66.45;33.10;;;;;;;3.18;87.08;100623.97;6298082;28;20041;-72
2022/02/14 07:36:03;;;;;;;64.53;31.48;;;;;;;3.27;86.12;100635.00;6280156;28;20070;-69
2022/02/14 07:39:04;;;;;;;92.95;47.17;;;;;;;3.36;84.86;100630.47;6297984;28;20040;-69
2022/02/14 07:42:05;;;;;;;61.75;31.02;;;;;;;3.36;85.99;100627.06;6298089;28;20485;-68
2022/02/14 07:45:07;;;;;;;79.07;41.40;;;;;;;3.50;84.79;100626.72;6297710;28;20041;-72
2022/02/14 07:48:09;;;;;;;;;;;;;;;3.54;84.05;100626.66;6297004;28;20455;-68
2022/02/14 07:51:10;;;;;;;116.97;56.20;;;;;;;3.71;82.83;100634.00;6297657;28;20007;-72
2022/02/14 07:54:11;;;;;;;69.35;34.78;;;;;;;3.76;80.82;100631.31;6303805;28;20036;-72
2022/02/14 07:57:12;;;;;;;97.53;46.38;;;;;;;3.89;81.72;100630.13;6319074;28;20083;-72
2022/02/14 08:00:13;;;;;;;113.93;52.45;;;;;;;3.99;80.88;100634.16;6273274;28;20048;-72
2022/02/14 08:03:14;;;;;;;65.60;33.70;;;;;;;4.10;79.74;100633.91;6296065;28;20114;-69
2022/02/14 08:06:15;;;;;;;107.45;52.15;;;;;;;4.22;79.09;100635.31;6288524;28;20047;-72
2022/02/14 08:09:17;;;;;;;86.90;43.83;;;;;;;4.29;77.82;100631.72;6287797;28;20401;-68
2022/02/14 08:12:18;;;;;;;64.43;31.25;;;;;;;4.52;76.94;100630.25;6279273;28;20556;-69
2022/02/14 08:15:19;;;;;;;75.18;40.17;;;;;;;4.62;76.93;100637.72;6297231;28;20051;-72
2022/02/14 08:18:20;;;;;;;89.78;46.53;;;;;;;4.80;76.38;100628.63;6301368;28;20124;-72
2022/02/14 08:21:21;;;;;;;96.13;42.40;;;;;;;4.89;74.17;100622.34;6279148;28;20443;-68
2022/02/14 08:24:23;;;;;;;75.55;35.17;;;;;;;4.92;74.49;100634.31;6297059;28;20404;-69
2022/02/14 08:27:24;;;;;;;43.70;22.55;;;;;;;4.98;73.22;100631.56;6245944;28;20045;-72
2022/02/14 08:30:26;;;;;;;38.63;21.02;;;;;;;5.08;72.74;100630.41;6279092;28;20497;-72
2022/02/14 08:33:27;;;;;;;48.72;22.80;;;;;;;5.22;72.10;100633.44;6245772;28;20056;-72
2022/02/14 08:36:27;;;;;;;49.85;25.15;;;;;;;5.28;71.05;100621.22;6278825;28;20041;-68
2022/02/14 08:39:29;;;;;;;36.67;21.10;;;;;;;5.28;70.25;100623.81;6296660;28;20040;-72
2022/02/14 08:42:30;;;;;;;36.70;20.40;;;;;;;5.41;70.83;100612.19;6278626;28;20492;-72
2022/02/14 08:45:32;;;;;;;41.53;20.52;;;;;;;5.51;70.05;100615.34;6278642;28;20041;-68
2022/02/14 08:48:33;;;;;;;43.38;22.45;;;;;;;5.63;69.32;100605.44;6280522;28;20397;-69
2022/02/14 08:51:34;;;;;;;38.27;19.93;;;;;;;5.67;67.60;100605.34;6275417;28;20437;-72
2022/02/14 08:54:35;;;;;;;34.08;18.48;;;;;;;5.70;68.48;100600.91;6269873;28;20285;-72
2022/02/14 08:57:36;;;;;;;56.10;27.13;;;;;;;5.72;69.10;100603.44;6289568;28;20052;-69
2022/02/14 09:00:37;;;;;;;61.65;32.00;;;;;;;5.87;67.73;100608.16;6261682;28;20072;-72
2022/02/14 09:03:42;;;;;;;52.10;26.17;;;;;;;5.90;66.01;100599.44;6278558;28;20157;-72
2022/02/14 09:06:43;;;;;;;43.33;20.20;;;;;;;5.95;65.95;100602.72;6295885;28;20051;-72
2022/02/14 09:09:44;;;;;;;39.10;17.13;;;;;;;5.99;66.10;100601.72;6261882;28;20111;-72
2022/02/14 09:12:48;;;;;;;41.20;19.25;;;;;;;6.03;65.52;100598.16;6278080;28;20072;-69
2022/02/14 09:15:49;;;;;;;37.92;18.90;;;;;;;6.12;64.91;100608.22;6262141;28;20117;-69
2022/02/14 09:18:51;;;;;;;46.03;24.02;;;;;;;6.27;65.12;100606.00;6277902;28;20049;-70
2022/02/14 09:21:52;;;;;;;41.72;22.20;;;;;;;6.20;66.23;100602.78;6263913;28;20055;-72
2022/02/14 09:24:52;;;;;;;50.28;19.52;;;;;;;6.35;64.27;100602.22;6261497;28;20040;-73
2022/02/14 09:27:54;;;;;;;40.00;19.83;;;;;;;6.51;64.19;100588.75;6295724;28;20098;-70
2022/02/14 09:30:55;;;;;;;39.15;21.65;;;;;;;6.62;64.14;100586.59;6278173;28;20044;-69
2022/02/14 09:33:56;;;;;;;32.45;16.95;;;;;;;6.64;63.18;100585.63;6277967;28;20146;-69
2022/02/14 09:36:58;;;;;;;30.27;14.77;;;;;;;6.65;62.04;100586.47;6296039;28;20385;-73
2022/02/14 09:40:00;;;;;;;26.05;15.70;;;;;;;6.67;61.83;100587.28;6295695;28;20040;-73
2022/02/14 09:43:02;;;;;;;29.55;14.73;;;;;;;6.63;62.41;100577.91;6277820;28;20052;-73
2022/02/14 09:46:04;;;;;;;;;;;;;;;6.67;61.25;100582.09;6277944;28;20041;-72
2022/02/14 09:49:06;;;;;;;22.38;13.45;;;;;;;6.71;63.95;100575.88;6295705;28;19966;-69
2022/02/14 09:52:07;;;;;;;24.30;14.23;;;;;;;6.78;61.16;100568.75;6295742;28;20040;-68
2022/02/14 09:55:08;;;;;;;27.73;15.95;;;;;;;6.86;59.82;100570.16;6292195;28;20097;-72
2022/02/14 09:58:10;;;;;;;27.42;15.45;;;;;;;6.90;59.44;100564.81;6318552;28;20048;-69
2022/02/14 10:01:11;;;;;;;21.38;12.05;;;;;;;6.99;59.25;100561.91;6284062;28;20714;-72
2022/02/14 10:04:12;;;;;;;23.27;12.50;;;;;;;6.98;58.80;100552.41;6284219;28;20561;-72
2022/02/14 10:07:13;;;;;;;29.15;14.98;;;;;;;7.16;58.21;100550.88;6300609;28;20063;-72
2022/02/14 10:10:25;;;;;;;20.00;10.70;;;;;;;7.17;57.46;100550.81;6302063;28;20111;-69
2022/02/14 10:13:34;;;;;;;23.92;11.40;;;;;;;7.41;55.85;100554.19;6325102;28;20089;-69
2022/02/14 10:16:35;;;;;;;23.45;10.45;;;;;;;7.41;56.78;100542.94;6325260;28;20067;-69
2022/02/14 10:19:45;;;;;;;23.48;11.45;;;;;;;7.43;55.77;100541.13;6324824;28;20461;-69
2022/02/14 10:22:58;;;;;;;24.08;13.07;;;;;;;7.59;56.37;100536.19;6306745;28;20052;-73
2022/02/14 10:26:04;;;;;;;21.25;11.57;;;;;;;7.73;55.00;100531.25;6306764;28;20047;-73
2022/02/14 10:29:21;;;;;;;32.42;16.48;;;;;;;7.89;53.72;100536.66;6306643;28;20051;-73
2022/02/14 10:32:23;;;;;;;20.30;10.18;;;;;;;8.22;53.68;100528.34;6324620;28;20507;-73
2022/02/14 10:35:27;;;;;;;17.88;10.55;;;;;;;8.37;53.15;100526.81;6306955;28;20043;-73
2022/02/14 10:38:36;;;;;;;20.80;11.15;;;;;;;8.51;52.48;100521.03;6306715;28;20040;-73
2022/02/14 10:41:42;;;;;;;18.88;11.27;;;;;;;8.62;51.15;100508.38;6306279;28;20059;-72
2022/02/14 10:48:14;;;;;;;20.75;11.77;;;;;;;8.72;49.92;100506.19;6324296;28;20040;-72
2022/02/14 10:51:19;;;;;;;18.35;9.45;;;;;;;8.60;50.35;100497.19;6324309;28;20075;-69
2022/02/14 10:54:20;;;;;;;17.02;9.15;;;;;;;8.41;52.62;100500.63;6306117;28;20040;-72
2022/02/14 10:57:27;;;;;;;18.17;8.98;;;;;;;8.39;51.14;100491.19;6323756;28;20492;-72
2022/02/14 11:00:30;;;;;;;14.07;8.68;;;;;;;8.58;51.68;100492.06;6289448;28;20055;-72
2022/02/14 11:03:31;;;;;;;20.15;9.20;;;;;;;9.06;50.86;100482.06;6323866;28;20040;-69
2022/02/14 11:06:36;;;;;;;13.60;8.93;;;;;;;8.95;49.17;100474.72;6289200;28;20373;-69
2022/02/14 11:09:38;;;;;;;16.75;9.40;;;;;;;9.29;50.75;100486.16;6305681;28;20044;-72
2022/02/14 11:12:41;;;;;;;17.80;9.03;;;;;;;9.56;49.39;100472.69;6305527;28;20052;-73
2022/02/14 11:15:43;;;;;;;15.00;9.07;;;;;;;9.70;51.06;100465.00;6305386;28;20377;-72
2022/02/14 11:18:47;;;;;;;14.82;8.90;;;;;;;9.78;49.91;100467.19;6305466;28;20048;-69
2022/02/14 11:21:47;;;;;;;15.25;8.80;;;;;;;9.90;51.25;100463.97;6323299;28;20044;-73
2022/02/14 11:24:58;;;;;;;16.05;8.43;;;;;;;9.65;49.47;100460.00;6288599;28;20036;-72
2022/02/14 11:28:10;;;;;;;18.13;7.95;;;;;;;9.63;48.84;100461.00;6323347;28;20488;-73
2022/02/14 11:31:19;;;;;;;15.52;8.27;;;;;;;9.80;50.26;100458.41;6305430;28;20407;-69
2022/02/14 11:34:20;;;;;;;18.50;8.90;;;;;;;9.85;48.79;100459.00;6305128;28;20147;-73
2022/02/14 11:37:21;;;;;;;14.18;8.50;;;;;;;10.16;50.26;100453.97;6288318;28;20480;-73
2022/02/14 11:40:30;;;;;;;14.07;7.72;;;;;;;9.93;49.32;100458.63;6305080;28;20063;-73
2022/02/14 11:43:38;;;;;;;15.38;8.40;;;;;;;9.92;51.69;100456.06;6322922;28;20404;-73
2022/02/14 11:46:46;;;;;;;18.08;9.75;;;;;;;10.15;50.36;100453.13;6322936;28;20066;-70
2022/02/14 11:49:49;;;;;;;204.05;51.28;;;;;;;10.07;52.06;100447.47;6322710;28;20044;-69
2022/02/14 11:52:50;;;;;;;56.58;23.42;;;;;;;10.11;50.99;100446.38;6322813;28;20058;-69
2022/02/14 11:55:51;;;;;;;18.65;10.45;;;;;;;10.25;50.25;100430.84;6288022;28;20051;-69
2022/02/14 11:59:04;;;;;;;17.15;9.80;;;;;;;10.07;53.41;100427.44;6287549;28;20051;-73
2022/02/14 12:02:05;;;;;;;;;;;;;;;9.88;53.36;100437.13;6322954;28;20561;-73
2022/02/14 12:05:06;;;;;;;17.60;9.93;;;;;;;9.93;54.00;100423.88;6304290;28;19920;-73
2022/02/14 12:08:07;;;;;;;17.55;9.57;;;;;;;9.75;53.80;100428.28;6304248;28;20051;-73
2022/02/14 12:11:08;;;;;;;18.48;10.80;;;;;;;9.61;55.22;100413.34;6304303;28;20456;-72
2022/02/14 12:14:24;;;;;;;19.35;9.55;;;;;;;9.45;55.20;100408.06;6322215;28;20052;-69
2022/02/14 12:21:14;;;;;;;19.73;11.45;;;;;;;10.04;54.07;100400.69;6322084;28;20047;-69
2022/02/14 12:24:19;;;;;;;16.40;10.10;;;;;;;9.92;55.44;100401.34;6322073;28;20486;-69
2022/02/14 12:27:23;;;;;;;19.95;10.75;;;;;;;9.66;55.88;100398.34;6322198;28;20039;-69
2022/02/14 12:30:26;;;;;;;21.50;11.40;;;;;;;10.09;54.27;100393.47;6303765;28;20064;-69
2022/02/14 12:33:28;;;;;;;18.85;9.95;;;;;;;10.14;53.43;100386.25;6270486;28;20052;-69
2022/02/14 12:36:28;;;;;;;18.10;11.07;;;;;;;10.15;53.23;100382.72;6303902;28;20040;-69
2022/02/14 12:39:38;;;;;;;17.35;10.30;;;;;;;10.19;54.66;100380.75;6303318;28;20052;-69
2022/02/14 12:42:39;;;;;;;33.70;16.42;;;;;;;10.16;54.14;100379.16;6321658;28;20495;-71
2022/02/14 12:45:40;;;;;;;24.23;13.43;;;;;;;10.26;53.52;100366.47;6286943;28;20476;-73
2022/02/14 12:48:49;;;;;;;16.30;10.65;;;;;;;10.17;51.80;100359.16;6321332;28;20048;-72
2022/02/14 12:51:50;;;;;;;17.15;10.20;;;;;;;10.11;54.57;100362.94;6303160;28;20539;-70
2022/02/14 12:54:53;;;;;;;18.17;10.63;;;;;;;10.24;53.83;100356.13;6321384;28;20040;-71
2022/02/14 12:57:56;;;;;;;18.20;10.18;;;;;;;10.44;53.05;100351.63;6286504;28;20079;-69
2022/02/14 13:01:04;;;;;;;20.75;12.27;;;;;;;10.52;54.43;100353.78;6321133;28;20048;-73
2022/02/14 13:04:13;;;;;;;20.02;10.82;;;;;;;10.41;53.82;100349.16;6321191;28;20040;-69
2022/02/14 13:07:14;;;;;;;24.20;16.33;;;;;;;10.20;54.18;100348.56;6321158;28;20048;-69
2022/02/14 13:10:18;;;;;;;20.92;11.25;;;;;;;10.15;54.78;100337.53;6303038;28;20040;-69
2022/02/14 13:13:30;;;;;;;24.67;10.38;;;;;;;9.74;55.58;100336.25;6303088;28;20496;-73
2022/02/14 13:16:30;;;;;;;18.67;10.47;;;;;;;10.05;57.15;100330.22;6320998;28;20408;-73
2022/02/14 13:19:35;;;;;;;14.88;8.90;;;;;;;9.96;57.13;100324.66;6302667;28;20289;-72
2022/02/14 13:22:38;;;;;;;19.17;10.23;;;;;;;10.00;57.29;100326.19;6303035;28;20097;-73
2022/02/14 13:25:53;;;;;;;25.20;12.82;;;;;;;9.85;56.62;100317.41;6302764;28;20495;-72
2022/02/14 13:28:56;;;;;;;16.67;11.13;;;;;;;9.76;57.36;100318.75;6320773;28;20051;-72
2022/02/14 13:31:57;;;;;;;21.55;11.23;;;;;;;9.85;56.55;100314.81;6286366;28;20036;-72
2022/02/14 13:35:06;;;;;;;23.45;12.00;;;;;;;9.82;56.46;100320.19;6286244;28;20472;-69
2022/02/14 13:38:08;;;;;;;17.65;10.95;;;;;;;10.02;54.64;100319.13;6302689;28;20120;-69
2022/02/14 13:41:12;;;;;;;22.65;12.73;;;;;;;9.83;56.55;100312.28;6286588;28;20480;-70
2022/02/14 13:44:13;;;;;;;;;;;;;;;9.75;55.75;100317.06;6321774;28;20039;-70
2022/02/14 13:47:16;;;;;;;25.70;13.75;;;;;;;9.65;56.46;100314.09;6291006;28;19919;-70
2022/02/14 13:50:28;;;;;;;23.73;14.18;;;;;;;9.86;57.60;100306.06;6290804;28;20052;-69
2022/02/14 13:53:38;;;;;;;27.75;13.75;;;;;;;9.73;58.89;100305.06;6307467;28;20074;-69
2022/02/14 13:56:46;;;;;;;20.77;12.32;;;;;;;9.81;58.76;100310.69;6307413;28;20072;-70
2022/02/14 13:59:47;;;;;;;18.38;10.07;;;;;;;9.72;57.49;100299.00;6290556;28;20098;-73
2022/02/14 14:03:03;;;;;;;18.85;11.68;;;;;;;9.65;58.51;100298.47;6307463;28;20068;-69